createdAt,value
2017-08-19T00:01:36.351Z,4.83
2017-08-19T00:04:04.632Z,4.40
2017-08-19T00:06:33.006Z,4.83
2017-08-19T00:09:01.360Z,5.60
2017-08-19T00:11:29.660Z,4.67
2017-08-19T00:13:58.021Z,4.83
2017-08-19T00:16:26.312Z,4.87
2017-08-19T00:18:54.676Z,5.17
2017-08-19T00:21:22.952Z,4.83
2017-08-19T00:23:51.240Z,5.23
2017-08-19T00:26:19.621Z,5.23
2017-08-19T00:28:47.905Z,4.77
2017-08-19T00:31:16.225Z,4.00
2017-08-19T00:33:44.491Z,4.60
2017-08-19T00:36:13.540Z,4.43
2017-08-19T00:38:41.825Z,4.80
2017-08-19T00:41:10.139Z,4.90
2017-08-19T00:43:39.209Z,4.83
2017-08-19T00:46:07.587Z,5.00
2017-08-19T00:48:35.870Z,4.67
2017-08-19T00:51:04.240Z,4.93
2017-08-19T00:53:32.526Z,5.20
2017-08-19T00:56:00.891Z,4.17
2017-08-19T00:58:29.168Z,4.20
2017-08-19T01:00:57.545Z,4.67
2017-08-19T01:03:25.913Z,5.10
2017-08-19T01:05:54.234Z,4.90
2017-08-19T01:08:23.303Z,6.10
2017-08-19T01:10:51.621Z,5.27
2017-08-19T01:13:19.951Z,5.37
2017-08-19T01:15:48.224Z,4.87
2017-08-19T01:18:16.502Z,4.80
2017-08-19T01:20:44.882Z,5.97
2017-08-19T01:23:13.153Z,4.93
2017-08-19T01:25:53.418Z,5.27
2017-08-19T01:28:21.697Z,5.03
2017-08-19T01:30:50.070Z,5.60
2017-08-19T01:33:18.332Z,5.30
2017-08-19T01:35:46.595Z,5.23
2017-08-19T01:38:14.896Z,5.30
2017-08-19T01:40:43.165Z,5.30
2017-08-19T01:43:11.554Z,4.97
2017-08-19T01:45:39.926Z,5.40
2017-08-19T01:48:08.409Z,5.17
2017-08-19T01:50:36.683Z,5.73
2017-08-19T01:53:05.054Z,4.77
2017-08-19T01:55:33.355Z,5.17
2017-08-19T01:58:01.643Z,5.70
2017-08-19T02:00:29.913Z,5.20
2017-08-19T02:02:58.280Z,4.30
2017-08-19T02:05:26.678Z,4.50
2017-08-19T02:07:54.941Z,4.07
2017-08-19T02:10:23.217Z,4.40
2017-08-19T02:12:51.693Z,3.80
2017-08-19T02:15:19.970Z,4.33
2017-08-19T02:17:48.248Z,4.30
2017-08-19T02:20:16.529Z,3.70
2017-08-19T02:22:45.169Z,3.50
2017-08-19T02:25:13.425Z,3.80
2017-08-19T02:27:42.589Z,4.27
2017-08-19T02:30:10.970Z,3.70
2017-08-19T02:32:39.344Z,3.03
2017-08-19T02:35:07.624Z,3.67
2017-08-19T02:37:36.516Z,3.80
2017-08-19T02:40:04.769Z,3.93
2017-08-19T02:42:33.082Z,3.87
2017-08-19T02:45:01.358Z,4.53
2017-08-19T02:47:29.630Z,4.00
2017-08-19T02:49:57.928Z,3.40
2017-08-19T02:52:26.204Z,3.47
2017-08-19T02:54:54.574Z,4.10
2017-08-19T02:57:22.955Z,4.00
2017-08-19T02:59:51.316Z,4.37
2017-08-19T03:02:19.605Z,4.07
2017-08-19T03:04:47.940Z,4.80
2017-08-19T03:07:16.210Z,4.30
2017-08-19T03:09:44.468Z,5.07
2017-08-19T03:12:12.818Z,4.77
2017-08-19T03:14:41.082Z,5.17
2017-08-19T03:17:09.459Z,4.50
2017-08-19T03:19:37.777Z,4.13
2017-08-19T03:22:06.162Z,4.10
2017-08-19T03:24:34.435Z,4.27
2017-08-19T03:27:02.761Z,4.30
2017-08-19T03:29:31.025Z,4.87
2017-08-19T03:31:59.302Z,5.10
2017-08-19T03:34:27.596Z,4.83
2017-08-19T03:36:55.910Z,4.83
2017-08-19T03:39:24.291Z,3.97
2017-08-19T03:41:52.575Z,4.60
2017-08-19T03:44:20.864Z,5.07
2017-08-19T03:46:49.908Z,4.90
2017-08-19T03:49:18.621Z,4.60
2017-08-19T03:51:46.897Z,4.20
2017-08-19T03:54:15.285Z,5.33
2017-08-19T03:56:43.561Z,5.07
2017-08-19T03:59:11.838Z,5.13
2017-08-19T04:01:40.127Z,5.83
2017-08-19T04:04:08.384Z,5.67
2017-08-19T04:06:36.774Z,4.80
2017-08-19T04:09:05.069Z,6.63
2017-08-19T04:11:33.421Z,5.77
2017-08-19T04:14:01.788Z,4.97
2017-08-19T04:16:30.164Z,5.40
2017-08-19T04:18:58.456Z,5.80
2017-08-19T04:21:26.828Z,4.50
2017-08-19T04:23:55.218Z,4.27
2017-08-19T04:26:23.578Z,5.57
2017-08-19T04:28:52.069Z,4.33
2017-08-19T04:31:20.352Z,4.83
2017-08-19T04:33:48.825Z,5.70
2017-08-19T04:36:17.072Z,4.70
2017-08-19T04:38:45.494Z,4.33
2017-08-19T04:41:13.761Z,4.97
2017-08-19T04:43:42.033Z,5.20
2017-08-19T04:46:11.086Z,5.10
2017-08-19T04:48:39.357Z,4.13
2017-08-19T04:51:07.665Z,4.70
2017-08-19T04:53:36.059Z,4.33
2017-08-19T04:56:05.147Z,4.00
2017-08-19T04:58:33.391Z,3.97
2017-08-19T05:01:01.787Z,3.63
2017-08-19T05:03:30.045Z,4.50
2017-08-19T05:05:58.341Z,4.70
2017-08-19T05:08:26.739Z,4.10
2017-08-19T05:10:55.000Z,4.43
2017-08-19T05:13:23.305Z,3.60
2017-08-19T05:15:52.347Z,3.73
2017-08-19T05:18:20.812Z,3.50
2017-08-19T05:20:49.095Z,3.07
2017-08-19T05:23:17.480Z,3.43
2017-08-19T05:25:45.756Z,3.00
2017-08-19T05:28:14.070Z,3.37
2017-08-19T05:30:43.114Z,3.10
2017-08-19T05:33:11.418Z,3.53
2017-08-19T05:35:39.705Z,2.50
2017-08-19T05:38:07.981Z,2.40
2017-08-19T05:40:36.295Z,1.90
2017-08-19T05:43:04.564Z,2.23
2017-08-19T05:45:32.954Z,2.43
2017-08-19T05:48:01.313Z,2.43
2017-08-19T05:50:29.599Z,2.37
2017-08-19T05:52:57.870Z,2.57
2017-08-19T05:55:26.255Z,2.80
2017-08-19T05:57:54.521Z,2.80
2017-08-19T06:00:22.801Z,2.33
2017-08-19T06:02:51.087Z,2.97
2017-08-19T06:05:19.362Z,2.67
2017-08-19T06:07:47.664Z,2.87
2017-08-19T06:10:15.948Z,2.80
2017-08-19T06:12:45.013Z,2.53
2017-08-19T06:15:13.302Z,2.63
2017-08-19T06:17:41.673Z,2.10
2017-08-19T06:20:09.950Z,2.30
2017-08-19T06:22:38.253Z,2.33
2017-08-19T06:25:07.322Z,2.10
2017-08-19T06:27:35.591Z,2.70
2017-08-19T06:30:03.973Z,2.27
2017-08-19T06:32:32.248Z,2.33
2017-08-19T06:35:00.568Z,2.43
2017-08-19T06:37:29.623Z,2.33
2017-08-19T06:39:57.904Z,2.10
2017-08-19T06:42:26.187Z,2.70
2017-08-19T06:44:54.478Z,2.50
2017-08-19T06:47:22.824Z,1.90
2017-08-19T06:49:51.985Z,2.33
2017-08-19T06:52:20.267Z,1.97
2017-08-19T06:54:48.649Z,2.30
2017-08-19T06:57:16.994Z,2.10
2017-08-19T06:59:45.370Z,2.57
2017-08-19T07:02:13.667Z,1.80
2017-08-19T07:04:42.745Z,2.30
2017-08-19T07:07:11.080Z,2.37
2017-08-19T07:09:39.366Z,2.43
2017-08-19T07:12:07.640Z,2.20
2017-08-19T07:14:35.916Z,1.93
2017-08-19T07:17:04.224Z,2.30
2017-08-19T07:19:32.489Z,2.33
2017-08-19T07:22:00.780Z,2.20
2017-08-19T07:24:29.161Z,2.20
2017-08-19T07:26:57.449Z,2.37
2017-08-19T07:29:25.826Z,2.40
2017-08-19T07:31:54.095Z,2.97
2017-08-19T07:34:22.381Z,2.47
2017-08-19T07:36:50.706Z,2.47
2017-08-19T07:39:19.038Z,2.33
2017-08-19T07:41:47.426Z,2.60
2017-08-19T07:44:15.697Z,2.77
2017-08-19T07:46:43.985Z,2.60
2017-08-19T07:49:13.016Z,2.97
2017-08-19T07:51:41.435Z,2.50
2017-08-19T07:54:09.689Z,2.60
2017-08-19T07:56:37.983Z,2.37
2017-08-19T07:59:06.286Z,2.60
2017-08-19T08:01:34.560Z,2.20
2017-08-19T08:04:02.840Z,1.80
2017-08-19T08:06:31.232Z,2.10
2017-08-19T08:09:00.275Z,2.33
2017-08-19T08:11:28.545Z,2.10
2017-08-19T08:13:56.839Z,2.43
2017-08-19T08:16:25.125Z,2.13
2017-08-19T08:18:53.522Z,2.10
2017-08-19T08:21:21.790Z,2.23
2017-08-19T08:23:50.040Z,2.30
2017-08-19T08:26:18.448Z,1.90
2017-08-19T08:28:46.834Z,1.80
2017-08-19T08:31:15.120Z,1.73
2017-08-19T08:33:44.160Z,1.67
2017-08-19T08:36:12.478Z,2.23
2017-08-19T08:38:40.877Z,1.83
2017-08-19T08:41:09.230Z,2.07
2017-08-19T08:43:37.609Z,1.93
2017-08-19T08:46:05.970Z,1.93
2017-08-19T08:48:34.267Z,1.50
2017-08-19T08:51:02.555Z,1.40
2017-08-19T08:53:31.622Z,1.30
2017-08-19T08:55:59.924Z,1.80
2017-08-19T08:58:28.298Z,1.50
2017-08-19T09:00:56.568Z,1.23
2017-08-19T09:03:24.960Z,1.40
2017-08-19T09:05:53.233Z,1.67
2017-08-19T09:08:21.541Z,1.50
2017-08-19T09:10:50.613Z,1.53
2017-08-19T09:13:18.899Z,1.97
2017-08-19T09:15:47.959Z,1.50
2017-08-19T09:18:16.354Z,1.80
2017-08-19T09:20:44.730Z,1.30
2017-08-19T09:23:13.025Z,1.60
2017-08-19T09:25:41.302Z,1.83
2017-08-19T09:28:09.680Z,1.60
2017-08-19T09:30:37.955Z,2.00
2017-08-19T09:33:07.023Z,2.07
2017-08-19T09:35:35.436Z,2.57
2017-08-19T09:38:03.817Z,2.10
2017-08-19T09:40:32.879Z,2.10
2017-08-19T09:43:01.270Z,1.87
2017-08-19T09:45:29.544Z,1.80
2017-08-19T09:47:57.863Z,2.10
2017-08-19T09:50:26.894Z,2.00
2017-08-19T09:52:55.153Z,2.40
2017-08-19T09:55:24.384Z,2.23
2017-08-19T09:57:52.774Z,2.43
2017-08-19T10:00:21.036Z,2.10
2017-08-19T10:02:49.306Z,2.53
2017-08-19T10:05:17.621Z,1.87
2017-08-19T10:07:45.897Z,2.20
2017-08-19T10:10:26.163Z,2.10
2017-08-19T10:12:55.236Z,2.20
2017-08-19T10:15:23.630Z,2.20
2017-08-19T10:17:52.002Z,2.27
2017-08-19T10:20:20.372Z,2.43
2017-08-19T10:22:48.665Z,2.43
2017-08-19T10:25:17.233Z,2.10
2017-08-19T10:27:45.513Z,2.30
2017-08-19T10:30:13.846Z,2.50
2017-08-19T10:32:42.323Z,1.80
2017-08-19T10:35:10.592Z,2.37
2017-08-19T10:37:38.877Z,2.03
2017-08-19T10:40:07.188Z,2.07
2017-08-19T10:42:36.248Z,2.23
2017-08-19T10:45:04.628Z,2.23
2017-08-19T10:47:32.914Z,2.30
2017-08-19T10:50:01.223Z,2.33
2017-08-19T10:52:29.494Z,2.10
2017-08-19T10:54:57.876Z,2.33
2017-08-19T10:57:26.149Z,2.20
2017-08-19T10:59:54.454Z,2.07
2017-08-19T11:02:22.782Z,2.33
2017-08-19T11:04:51.101Z,1.90
2017-08-19T11:07:19.503Z,1.90
2017-08-19T11:09:48.538Z,2.00
2017-08-19T11:12:16.847Z,2.40
2017-08-19T11:14:45.109Z,2.70
2017-08-19T11:17:13.492Z,1.90
2017-08-19T11:19:41.736Z,2.30
2017-08-19T11:22:10.131Z,2.07
2017-08-19T11:24:38.556Z,2.13
2017-08-19T11:27:06.920Z,2.40
2017-08-19T11:29:36.006Z,3.40
2017-08-19T11:32:04.377Z,2.27
2017-08-19T11:34:32.632Z,2.57
2017-08-19T11:37:00.950Z,2.70
2017-08-19T11:39:29.289Z,2.43
2017-08-19T11:41:57.590Z,2.40
2017-08-19T11:44:25.910Z,2.37
2017-08-19T11:46:54.245Z,2.90
2017-08-19T11:49:22.543Z,2.30
2017-08-19T11:51:50.883Z,2.83
2017-08-19T11:54:19.157Z,2.63
2017-08-19T11:56:47.439Z,2.33
2017-08-19T11:59:15.749Z,3.00
2017-08-19T12:01:44.587Z,2.47
2017-08-19T12:04:12.857Z,3.30
2017-08-19T12:06:41.166Z,2.60
2017-08-19T12:09:09.548Z,3.00
2017-08-19T12:11:37.826Z,2.47
2017-08-19T12:14:06.101Z,3.00
2017-08-19T12:16:34.372Z,2.50
2017-08-19T12:19:02.650Z,2.90
2017-08-19T12:21:30.989Z,2.33
2017-08-19T12:23:59.269Z,3.07
2017-08-19T12:26:27.939Z,2.53
2017-08-19T12:28:57.605Z,2.23
2017-08-19T12:31:25.876Z,2.50
2017-08-19T12:33:54.201Z,2.50
2017-08-19T12:36:22.539Z,2.03
2017-08-19T12:38:50.905Z,2.13
2017-08-19T12:41:19.177Z,2.03
2017-08-19T12:43:47.491Z,2.07
2017-08-19T12:46:15.841Z,2.03
2017-08-19T12:48:44.227Z,1.83
2017-08-19T12:51:12.605Z,1.60
2017-08-19T12:53:40.886Z,1.80
2017-08-19T12:56:09.266Z,1.40
2017-08-19T12:58:37.643Z,1.70
2017-08-19T13:01:05.962Z,1.87
2017-08-19T13:03:34.218Z,1.63
2017-08-19T13:06:02.489Z,2.13
2017-08-19T13:08:30.815Z,1.80
2017-08-19T13:10:59.885Z,2.10
2017-08-19T13:13:28.254Z,2.30
2017-08-19T13:15:56.528Z,1.73
2017-08-19T13:18:24.888Z,2.40
2017-08-19T13:20:53.180Z,2.13
2017-08-19T13:23:21.565Z,1.80
2017-08-19T13:25:49.838Z,1.80
2017-08-19T13:28:18.089Z,2.00
2017-08-19T13:30:46.398Z,1.70
2017-08-19T13:33:14.676Z,1.77
2017-08-19T13:35:42.985Z,1.60
2017-08-19T13:38:11.273Z,1.60
2017-08-19T13:40:39.605Z,1.40
2017-08-19T13:43:07.885Z,1.70
2017-08-19T13:45:36.144Z,1.60
2017-08-19T13:48:04.540Z,1.70
2017-08-19T13:50:33.590Z,1.50
2017-08-19T13:53:01.871Z,1.50
2017-08-19T13:55:30.939Z,1.50
2017-08-19T13:57:59.236Z,1.67
2017-08-19T14:00:28.435Z,1.37
2017-08-19T14:02:56.797Z,1.60
2017-08-19T14:05:25.058Z,1.37
2017-08-19T14:07:53.463Z,1.60
2017-08-19T14:10:21.721Z,1.70
2017-08-19T14:12:50.104Z,1.40
2017-08-19T14:15:19.134Z,1.43
2017-08-19T14:17:47.450Z,1.50
2017-08-19T14:20:15.750Z,2.10
2017-08-19T14:22:44.005Z,1.30
2017-08-19T14:25:12.485Z,1.67
2017-08-19T14:27:40.782Z,2.10
2017-08-19T14:30:09.822Z,1.30
2017-08-19T14:32:38.132Z,1.80
2017-08-19T14:35:06.448Z,1.87
2017-08-19T14:37:35.613Z,1.63
2017-08-19T14:40:03.895Z,1.77
2017-08-19T14:42:32.282Z,1.63
2017-08-19T14:45:00.575Z,1.63
2017-08-19T14:47:28.927Z,1.67
2017-08-19T14:49:57.326Z,1.80
2017-08-19T14:52:25.598Z,1.40
2017-08-19T14:54:53.864Z,1.70
2017-08-19T14:57:22.174Z,1.23
2017-08-19T14:59:50.447Z,1.47
2017-08-19T15:02:18.773Z,1.30
2017-08-19T15:04:47.100Z,1.67
2017-08-19T15:07:15.393Z,1.47
2017-08-19T15:09:43.675Z,2.17
2017-08-19T15:12:12.053Z,1.97
2017-08-19T15:14:40.417Z,1.23
2017-08-19T15:17:08.664Z,1.03
2017-08-19T15:19:37.013Z,1.17
2017-08-19T15:22:06.190Z,1.43
2017-08-19T15:24:34.611Z,1.13
2017-08-19T15:27:02.909Z,1.30
2017-08-19T15:29:31.983Z,1.07
2017-08-19T15:32:00.364Z,1.90
2017-08-19T15:34:28.745Z,1.23
2017-08-19T15:36:57.017Z,1.30
2017-08-19T15:39:25.319Z,1.13
2017-08-19T15:41:54.405Z,0.90
2017-08-19T15:44:22.657Z,1.20
2017-08-19T15:46:51.150Z,1.27
2017-08-19T15:49:19.539Z,1.20
2017-08-19T15:51:47.851Z,0.90
2017-08-19T15:54:16.925Z,0.93
2017-08-19T15:56:45.322Z,0.97
2017-08-19T15:59:13.608Z,0.90
2017-08-19T16:01:41.885Z,1.23
2017-08-19T16:04:10.196Z,1.30
2017-08-19T16:06:38.518Z,1.00
2017-08-19T16:09:06.797Z,0.90
2017-08-19T16:11:35.094Z,0.80
2017-08-19T16:14:03.372Z,1.20
2017-08-19T16:16:31.677Z,1.20
2017-08-19T16:18:59.936Z,2.70
2017-08-19T16:21:28.200Z,1.73
2017-08-19T16:23:56.483Z,0.80
2017-08-19T16:26:24.809Z,1.00
2017-08-19T16:28:53.148Z,1.00
2017-08-19T16:31:21.713Z,1.10
2017-08-19T16:33:50.013Z,1.00
2017-08-19T16:36:18.407Z,1.10
2017-08-19T16:38:46.669Z,0.73
2017-08-19T16:41:14.986Z,0.93
2017-08-19T16:43:43.318Z,1.17
2017-08-19T16:46:11.572Z,0.67
2017-08-19T16:48:39.864Z,0.70
2017-08-19T16:51:08.150Z,0.70
2017-08-19T16:53:36.461Z,1.00
2017-08-19T16:56:05.507Z,0.70
2017-08-19T16:58:33.775Z,0.87
2017-08-19T17:01:02.089Z,0.70
2017-08-19T17:03:30.449Z,0.83
2017-08-19T17:05:58.759Z,0.97
2017-08-19T17:08:27.782Z,0.80
2017-08-19T17:10:56.061Z,1.03
2017-08-19T17:13:24.376Z,5.27
2017-08-19T17:15:52.667Z,2.57
2017-08-19T17:18:20.997Z,1.23
2017-08-19T17:20:49.325Z,1.10
2017-08-19T17:23:17.601Z,1.27
2017-08-19T17:25:45.885Z,1.40
2017-08-19T17:28:14.144Z,2.93
2017-08-19T17:30:42.478Z,3.43
2017-08-19T17:33:10.800Z,1.20
2017-08-19T17:35:39.190Z,1.00
2017-08-19T17:38:07.565Z,2.40
2017-08-19T17:40:35.853Z,1.23
2017-08-19T17:43:04.150Z,1.20
2017-08-19T17:45:33.212Z,2.43
2017-08-19T17:48:01.594Z,1.20
2017-08-19T17:50:29.873Z,1.07
2017-08-19T17:52:58.225Z,1.20
2017-08-19T17:55:26.545Z,1.00
2017-08-19T17:57:55.613Z,0.77
2017-08-19T18:00:23.880Z,1.20
2017-08-19T18:02:52.183Z,0.97
2017-08-19T18:05:20.456Z,1.33
2017-08-19T18:07:48.769Z,1.60
2017-08-19T18:10:17.109Z,1.10
2017-08-19T18:12:45.390Z,1.63
2017-08-19T18:15:13.672Z,1.53
2017-08-19T18:17:41.951Z,1.53
2017-08-19T18:20:10.234Z,1.20
2017-08-19T18:22:39.321Z,1.33
2017-08-19T18:25:07.585Z,1.47
2017-08-19T18:27:35.853Z,1.47
2017-08-19T18:30:04.131Z,1.07
2017-08-19T18:32:32.531Z,1.70
2017-08-19T18:35:00.891Z,2.27
2017-08-19T18:37:29.165Z,1.57
2017-08-19T18:39:57.538Z,1.67
2017-08-19T18:42:25.813Z,1.70
2017-08-19T18:44:54.147Z,1.30
2017-08-19T18:47:23.217Z,1.70
2017-08-19T18:49:51.578Z,1.70
2017-08-19T18:52:19.846Z,1.50
2017-08-19T18:54:48.259Z,1.37
2017-08-19T18:57:16.519Z,1.20
2017-08-19T18:59:44.898Z,2.03
2017-08-19T19:02:13.174Z,1.43
2017-08-19T19:04:41.556Z,2.03
2017-08-19T19:07:09.833Z,1.50
2017-08-19T19:09:38.209Z,2.47
2017-08-19T19:12:06.591Z,1.63
2017-08-19T19:14:34.848Z,1.53
2017-08-19T19:17:03.138Z,1.50
2017-08-19T19:19:31.402Z,2.30
2017-08-19T19:21:59.690Z,1.90
2017-08-19T19:24:27.989Z,1.97
2017-08-19T19:26:56.324Z,1.23
2017-08-19T19:29:24.626Z,2.03
2017-08-19T19:31:53.014Z,1.90
2017-08-19T19:34:21.292Z,1.17
2017-08-19T19:36:49.562Z,1.93
2017-08-19T19:39:17.854Z,2.00
2017-08-19T19:41:46.104Z,1.70
2017-08-19T19:44:15.189Z,1.87
2017-08-19T19:46:43.580Z,3.87
2017-08-19T19:49:11.889Z,3.70
2017-08-19T19:51:40.165Z,1.90
2017-08-19T19:54:08.599Z,2.37
2017-08-19T19:56:36.884Z,2.40
2017-08-19T19:59:05.254Z,2.60
2017-08-19T20:01:33.635Z,2.70
2017-08-19T20:04:02.015Z,3.30
2017-08-19T20:06:30.295Z,2.57
2017-08-19T20:08:58.705Z,3.43
2017-08-19T20:11:27.041Z,3.13
2017-08-19T20:13:55.305Z,3.27
2017-08-19T20:16:24.476Z,4.00
2017-08-19T20:18:52.736Z,4.80
2017-08-19T20:21:21.025Z,2.70
2017-08-19T20:23:49.297Z,2.73
2017-08-19T20:26:17.597Z,2.43
2017-08-19T20:28:45.961Z,2.93
2017-08-19T20:31:14.229Z,3.20
2017-08-19T20:33:42.501Z,3.20
2017-08-19T20:36:10.876Z,3.13
2017-08-19T20:38:39.257Z,5.20
2017-08-19T20:41:07.511Z,4.13
2017-08-19T20:43:35.775Z,4.73
2017-08-19T20:46:04.083Z,3.77
2017-08-19T20:48:32.365Z,4.70
2017-08-19T20:51:00.741Z,4.07
2017-08-19T20:53:29.017Z,4.00
2017-08-19T20:55:57.403Z,4.80
2017-08-19T20:58:25.716Z,4.47
2017-08-19T21:00:54.873Z,3.30
2017-08-19T21:03:23.184Z,3.60
2017-08-19T21:05:52.244Z,3.60
2017-08-19T21:08:20.629Z,4.90
2017-08-19T21:10:48.894Z,3.80
2017-08-19T21:13:17.180Z,3.60
2017-08-19T21:15:45.437Z,3.60
2017-08-19T21:18:13.730Z,3.40
2017-08-19T21:20:42.006Z,3.50
2017-08-19T21:23:10.387Z,2.83
2017-08-19T21:25:38.641Z,3.87
2017-08-19T21:28:07.052Z,3.67
2017-08-19T21:30:35.320Z,2.80
2017-08-19T21:33:03.568Z,3.03
2017-08-19T21:35:31.861Z,2.43
2017-08-19T21:38:00.169Z,2.00
2017-08-19T21:40:28.450Z,2.53
2017-08-19T21:42:56.729Z,2.60
2017-08-19T21:45:25.803Z,2.70
2017-08-19T21:47:54.073Z,2.50
2017-08-19T21:50:22.419Z,2.60
2017-08-19T21:52:50.779Z,2.23
2017-08-19T21:55:19.048Z,2.37
2017-08-19T21:57:47.423Z,2.33
2017-08-19T22:00:15.702Z,2.33
2017-08-19T22:02:44.087Z,2.03
2017-08-19T22:05:12.345Z,2.40
2017-08-19T22:07:40.630Z,2.20
2017-08-19T22:10:09.002Z,2.60
2017-08-19T22:12:37.486Z,2.60
2017-08-19T22:15:05.738Z,2.50
2017-08-19T22:17:34.150Z,3.90
2017-08-19T22:20:02.523Z,2.10
2017-08-19T22:22:30.819Z,2.37
2017-08-19T22:24:59.190Z,2.50
2017-08-19T22:27:27.558Z,2.20
2017-08-19T22:29:55.868Z,1.93
2017-08-19T22:32:24.163Z,1.80
2017-08-19T22:34:52.545Z,2.40
2017-08-19T22:37:20.803Z,1.90
2017-08-19T22:39:49.124Z,2.40
2017-08-19T22:42:18.181Z,2.17
2017-08-19T22:44:46.464Z,2.33
2017-08-19T22:47:14.846Z,2.30
2017-08-19T22:49:43.124Z,2.03
2017-08-19T22:52:11.436Z,2.20
2017-08-19T22:54:39.722Z,2.50
2017-08-19T22:57:08.050Z,2.70
2017-08-19T22:59:36.327Z,2.30
2017-08-19T23:02:04.703Z,2.30
2017-08-19T23:04:32.996Z,2.10
2017-08-19T23:07:01.296Z,2.53
2017-08-19T23:09:30.355Z,2.27
2017-08-19T23:11:58.608Z,2.00
2017-08-19T23:14:26.909Z,2.70
2017-08-19T23:16:55.187Z,2.50
2017-08-19T23:19:23.563Z,2.80
2017-08-19T23:21:51.893Z,2.70
2017-08-19T23:24:20.223Z,2.67
2017-08-19T23:26:48.492Z,2.80
2017-08-19T23:29:16.800Z,2.57
2017-08-19T23:31:45.147Z,2.70
2017-08-19T23:34:13.558Z,2.30
2017-08-19T23:36:41.912Z,3.10
2017-08-19T23:39:10.986Z,3.40
2017-08-19T23:41:39.357Z,3.27
2017-08-19T23:44:08.388Z,3.30
2017-08-19T23:46:36.660Z,3.40
2017-08-19T23:49:04.940Z,2.90
2017-08-19T23:51:33.336Z,3.57
2017-08-19T23:54:01.597Z,3.10
2017-08-19T23:56:29.984Z,3.43
2017-08-19T23:58:58.247Z,3.10
